Black River Falls, WI

3:36 AM CST on February 13, 2016 (GMT -0600)
Black River Falls Area

Weather History for KBCK - April, 2014

Change the Weather History Date:

Thursday, April 10, 2014

  Actual Average (KLSE) Record (KLSE)
Temperature  
Mean Temperature 46 °F 46 °F  
Max Temperature 64 °F 57 °F 91 °F (1930)
Min Temperature 29 °F 36 °F 19 °F (1909)
Degree Days  
Heating Degree Days 18 19  
Month to date heating degree days 210  
Since 1 July heating degree days 6663  
Cooling Degree Days 0 0  
Month to date cooling degree days 0  
Year to date cooling degree days 0  
Moisture  
Dew Point 22 °F    
Average Humidity 33    
Maximum Humidity 74    
Minimum Humidity 12    
Precipitation  
Precipitation 0.00 in 0.11 in 1.42 in (2011)
Month to date precipitation 0.97  
Year to date precipitation 5.18  
Snow  
Snow 0.00 in 0.00 in 1.00 in (1914)
Month to date snowfall 0.8  
Since 1 July snowfall 42.4  
Snow Depth -    
Sea Level Pressure  
Sea Level Pressure 29.74 in    
Wind  
Wind Speed 9 mph (WNW)    
Max Wind Speed 21 mph    
Max Gust Speed 37 mph    
Visibility 10 miles    
Events      
T = Trace of Precipitation, MM = Missing Value Source: NWS Daily Summary

Daily Weather History Graph

Daily Weather History Graph

Search for Another Location

Airport or City:

Trip Planner

Search our weather history database for the weather conditions in past years. The results will help you decide how hot, cold, wet, or windy it might be!

Date:

Astronomy

Apr. 10, 2014 Rise Set
Actual Time 6:28 AM CDT 7:41 PM CDT
Civil Twilight 5:58 AM CDT 8:11 PM CDT
Nautical Twilight 5:22 AM CDT 8:47 PM CDT
Astronomical Twilight 4:45 AM CDT 9:25 PM CDT
Moon 3:16 PM CDT (4/10) 4:01 AM CDT (4/10)
Length of Visible Light 14h 12m
Length of Day
13h 13m
Waxing Gibbous, 80% of the Moon is Illuminated
Apr 10
Waxing Gibbous
Apr 15
Full
Apr 22
Last Quarter
Apr 29
New
May 6
First Quarter

Hourly Weather History & Observations

Time (CDT) Temp. Dew Point Humidity Pressure Visibility Wind Dir Wind Speed Gust Speed Precip Events Conditions
12:35 AM 59.5 °F 29.8 °F 32% 29.56 in 10.0 mi SSW 10.4 mph 16.1 mph N/A   Clear
12:55 AM 59.4 °F 30.2 °F 33% 29.56 in 10.0 mi SSW 11.5 mph - N/A   Clear
1:15 AM 59.9 °F 30.2 °F 33% 29.56 in 10.0 mi SW 9.2 mph 16.1 mph N/A   Mostly Cloudy
1:35 AM 59.4 °F 30.7 °F 34% 29.56 in 10.0 mi SW 10.4 mph 17.3 mph N/A   Mostly Cloudy
1:55 AM 58.8 °F 30.9 °F 35% 29.56 in 10.0 mi SW 5.8 mph - N/A   Scattered Clouds
2:15 AM 59.0 °F 31.1 °F 35% 29.54 in 10.0 mi SW 10.4 mph 16.1 mph N/A   Clear
2:35 AM 59.4 °F 31.6 °F 35% 29.55 in 10.0 mi SW 6.9 mph - N/A   Scattered Clouds
2:55 AM 59.0 °F 32.0 °F 36% 29.56 in 10.0 mi SW 9.2 mph - N/A   Scattered Clouds
3:15 AM 58.3 °F 32.4 °F 38% 29.56 in 10.0 mi SW 8.1 mph - N/A   Clear
3:55 AM 57.2 °F 33.1 °F 40% 29.57 in 10.0 mi WSW 9.2 mph - N/A   Scattered Clouds
4:15 AM 56.8 °F 33.3 °F 41% 29.58 in 10.0 mi WSW 6.9 mph - N/A   Clear
4:35 AM 54.5 °F 34.0 °F 46% 29.59 in 10.0 mi West 4.6 mph - N/A   Clear
4:55 AM 53.8 °F 35.1 °F 49% 29.61 in 10.0 mi WNW 8.1 mph - N/A   Clear
5:15 AM 55.8 °F 36.5 °F 48% 29.61 in 10.0 mi NW 10.4 mph 21.9 mph N/A   Clear
5:35 AM 55.2 °F 36.0 °F 48% 29.63 in 10.0 mi NW 10.4 mph 21.9 mph N/A   Clear
5:55 AM 53.2 °F 36.5 °F 53% 29.64 in 10.0 mi NNW 13.8 mph 19.6 mph N/A   Clear
6:15 AM 52.5 °F 34.3 °F 50% 29.64 in 10.0 mi NNW 8.1 mph - N/A   Clear
6:35 AM 52.2 °F 34.2 °F 50% 29.65 in 10.0 mi NW 4.6 mph - N/A   Clear
7:15 AM 51.1 °F 33.3 °F 51% 29.66 in 10.0 mi NW 8.1 mph - N/A   Scattered Clouds
7:35 AM 50.9 °F 33.8 °F 52% 29.66 in 10.0 mi NW 5.8 mph - N/A   Clear
7:55 AM 51.1 °F 34.2 °F 52% 29.68 in 10.0 mi WNW 8.1 mph - N/A   Mostly Cloudy
8:15 AM 50.9 °F 33.3 °F 51% 29.68 in 10.0 mi NW 8.1 mph - N/A   Mostly Cloudy
8:35 AM 50.9 °F 32.4 °F 49% 29.69 in 10.0 mi NW 12.7 mph 19.6 mph N/A   Overcast
8:55 AM 50.5 °F 32.0 °F 49% 29.70 in 10.0 mi NW 8.1 mph - N/A   Mostly Cloudy
9:15 AM 51.1 °F 31.1 °F 46% 29.72 in 10.0 mi WNW 10.4 mph 16.1 mph N/A   Scattered Clouds
9:35 AM 53.1 °F 26.6 °F 36% 29.73 in 10.0 mi NW 13.8 mph 19.6 mph N/A   Clear
9:55 AM 53.4 °F 25.0 °F 33% 29.73 in 10.0 mi NW 11.5 mph 17.3 mph N/A   Clear
10:15 AM 53.8 °F 24.4 °F 32% 29.73 in 10.0 mi WNW 6.9 mph - N/A   Clear
10:35 AM 55.0 °F 22.6 °F 28% 29.73 in 10.0 mi NW 12.7 mph 20.7 mph N/A   Clear
10:55 AM 56.5 °F 21.6 °F 26% 29.74 in 10.0 mi NW 12.7 mph 18.4 mph N/A   Clear
11:15 AM 55.9 °F 19.9 °F 25% 29.76 in 10.0 mi WNW 11.5 mph 20.7 mph N/A   Clear
11:35 AM 57.9 °F 19.6 °F 23% 29.75 in 10.0 mi WNW 15.0 mph 18.4 mph N/A   Clear
11:55 AM 58.1 °F 15.6 °F 19% 29.75 in 10.0 mi West 16.1 mph 24.2 mph N/A   Clear
12:15 PM 59.0 °F 14.9 °F 18% 29.75 in 10.0 mi NW 15.0 mph 23.0 mph N/A   Clear
12:35 PM 59.7 °F 14.4 °F 17% 29.75 in 10.0 mi WNW 16.1 mph 24.2 mph N/A   Clear
12:55 PM 59.7 °F 16.0 °F 18% 29.75 in 10.0 mi West 16.1 mph 23.0 mph N/A   Clear
1:15 PM 61.2 °F 12.0 °F 15% 29.75 in 10.0 mi WNW 15.0 mph 27.6 mph N/A   Clear
1:35 PM 62.6 °F 12.9 °F 14% 29.75 in 10.0 mi NW 12.7 mph 33.4 mph N/A   Clear
1:55 PM 62.6 °F 13.1 °F 15% 29.76 in 10.0 mi WNW 20.7 mph 36.8 mph N/A   Clear
2:15 PM 63.3 °F 13.8 °F 15% 29.76 in 10.0 mi WNW 11.5 mph 26.5 mph N/A   Clear
2:35 PM 63.7 °F 13.1 °F 14% 29.76 in 10.0 mi West 12.7 mph 27.6 mph N/A   Clear
2:55 PM 63.3 °F 12.4 °F 14% 29.76 in 10.0 mi WNW 17.3 mph 31.1 mph N/A   Clear
3:15 PM 63.9 °F 10.6 °F 12% 29.76 in 10.0 mi NW 12.7 mph 21.9 mph N/A   Clear
3:35 PM 64.4 °F 11.8 °F 13% 29.76 in 10.0 mi WNW 12.7 mph 26.5 mph N/A   Clear
3:55 PM 63.9 °F 11.7 °F 13% 29.76 in 10.0 mi NW 15.0 mph 25.3 mph N/A   Clear
4:15 PM 63.7 °F 11.3 °F 13% 29.77 in 10.0 mi WNW 13.8 mph 21.9 mph N/A   Clear
4:35 PM 62.8 °F 8.1 °F 12% 29.79 in 10.0 mi NW 16.1 mph 24.2 mph N/A   Clear
4:55 PM 62.4 °F 10.8 °F 13% 29.79 in 10.0 mi NW 11.5 mph 23.0 mph N/A   Clear
5:15 PM 62.2 °F 7.9 °F 12% 29.80 in 10.0 mi NW 15.0 mph 25.3 mph N/A   Clear
5:35 PM 61.5 °F 9.5 °F 13% 29.80 in 10.0 mi NNW 17.3 mph 26.5 mph N/A   Clear
5:55 PM 61.2 °F 10.2 °F 13% 29.81 in 10.0 mi NW 15.0 mph 20.7 mph N/A   Clear
6:15 PM 60.8 °F 10.6 °F 14% 29.82 in 10.0 mi NW 9.2 mph 18.4 mph N/A   Clear
6:35 PM 59.9 °F 10.6 °F 14% 29.83 in 10.0 mi NW 8.1 mph - N/A   Clear
6:55 PM 58.5 °F 10.2 °F 15% 29.84 in 10.0 mi NW 9.2 mph 16.1 mph N/A   Clear
7:15 PM 57.6 °F 10.4 °F 15% 29.85 in 10.0 mi NW 4.6 mph 9.2 mph N/A   Clear
7:35 PM 55.6 °F 10.6 °F 17% 29.85 in 10.0 mi WNW 4.6 mph - N/A   Clear
7:55 PM 54.0 °F 11.7 °F 19% 29.85 in 10.0 mi NW 3.5 mph - N/A   Clear
8:15 PM 50.5 °F 13.1 °F 22% 29.86 in 10.0 mi NW 3.5 mph - N/A   Clear
8:35 PM 42.3 °F 16.3 °F 35% 29.87 in 10.0 mi Calm Calm - N/A   Clear
8:55 PM 39.2 °F 18.0 °F 42% 29.89 in 10.0 mi Calm Calm - N/A   Clear
9:15 PM 36.3 °F 19.2 °F 50% 29.90 in 10.0 mi Calm Calm - N/A   Clear
9:35 PM 35.8 °F 15.8 °F 44% 29.91 in 10.0 mi Calm Calm - N/A   Clear
9:55 PM 35.6 °F 17.1 °F 47% 29.91 in 10.0 mi Calm Calm - N/A   Clear
10:15 PM 32.9 °F 17.2 °F 53% 29.92 in 10.0 mi Calm Calm - N/A   Clear
10:35 PM 32.4 °F 19.0 °F 58% 29.93 in 10.0 mi Calm Calm - N/A   Clear
10:55 PM 31.8 °F 18.5 °F 58% 29.93 in 10.0 mi Calm Calm - N/A   Clear
11:15 PM 30.9 °F 19.6 °F 63% 29.93 in 10.0 mi Calm Calm - N/A   Clear
11:35 PM 29.1 °F 21.7 °F 74% 29.93 in 10.0 mi Calm Calm - N/A   Clear
11:55 PM 29.5 °F 19.0 °F 65% 29.93 in 10.0 mi Calm Calm - N/A   Clear